Time;durP1;ratioP1;P1;durP2;ratioP2;P2;SDS_P1;SDS_P2;PMS_P1;PMS_P2;Temp;Humidity;BMP_temperature;BMP_pressure;BME280_temperature;BME280_humidity;BME280_pressure;Samples;Min_cycle;Max_cycle;Signal;HPM_P1;HPM_P2
2022/08/24 00:01:19;;;;;;;18.77;10.80;;;;;;;23.20;71.37;101724.72;5003222;28;20038;-53
2022/08/24 00:03:46;;;;;;;17.05;10.98;;;;;;;23.22;71.32;101733.44;5004193;28;21169;-53
2022/08/24 00:06:16;;;;;;;12.77;9.77;;;;;;;23.15;71.56;101716.03;5000654;28;20149;-53
2022/08/24 00:08:41;;;;;;;11.73;9.85;;;;;;;23.11;71.47;101724.81;5003246;28;20124;-53
2022/08/24 00:11:07;;;;;;;14.18;9.90;;;;;;;23.05;71.32;101720.50;5004414;28;20124;-54
2022/08/24 00:13:34;;;;;;;12.35;10.50;;;;;;;23.07;71.44;101725.75;5004418;28;20720;-52
2022/08/24 00:15:59;;;;;;;13.38;11.38;;;;;;;23.02;71.74;101723.16;5001105;28;20161;-54
2022/08/24 00:18:25;;;;;;;16.73;13.13;;;;;;;22.97;72.14;101731.06;5001449;28;20101;-53
2022/08/24 00:20:51;;;;;;;17.58;12.90;;;;;;;22.95;72.37;101734.59;4999752;28;20034;-53
2022/08/24 00:23:17;;;;;;;16.40;13.30;;;;;;;22.96;72.41;101731.94;5004253;28;20389;-53
2022/08/24 00:25:43;;;;;;;16.23;13.77;;;;;;;22.89;72.96;101729.41;5001013;28;20048;-53
2022/08/24 00:28:08;;;;;;;18.98;14.48;;;;;;;22.90;72.83;101737.25;4997346;28;20045;-52
2022/08/24 00:30:34;;;;;;;15.23;13.73;;;;;;;22.85;73.14;101739.00;4997176;28;20160;-53
2022/08/24 00:33:00;;;;;;;18.20;14.48;;;;;;;22.89;72.76;101742.53;4997243;28;20034;-53
2022/08/24 00:35:25;;;;;;;16.65;14.25;;;;;;;22.86;72.79;101734.63;5002126;28;20064;-54
2022/08/24 00:37:52;;;;;;;16.27;14.35;;;;;;;22.81;72.98;101739.91;5002920;28;20068;-54
2022/08/24 00:40:26;;;;;;;17.63;14.27;;;;;;;22.91;72.86;101740.75;4995349;28;20042;-53
2022/08/24 00:42:54;;;;;;;17.02;15.13;;;;;;;22.74;73.74;101741.72;5000661;28;20049;-53
2022/08/24 00:45:20;;;;;;;15.50;13.50;;;;;;;22.73;73.22;101746.97;5004322;28;20030;-54
2022/08/24 00:48:04;;;;;;;15.82;13.07;;;;;;;22.81;72.52;101742.53;5004613;28;20022;-53
2022/08/24 00:50:58;;;;;;;15.75;13.70;;;;;;;22.76;72.64;101744.34;4998661;28;20045;-53
2022/08/24 00:53:31;;;;;;;16.38;12.98;;;;;;;22.67;73.15;101744.41;4994682;28;20050;-53
2022/08/24 00:56:02;;;;;;;18.13;14.93;;;;;;;22.65;73.74;101747.06;5003598;28;20038;-53
2022/08/24 00:58:35;;;;;;;20.73;15.35;;;;;;;22.62;73.64;101748.81;5002290;28;20076;-54
2022/08/24 01:01:03;;;;;;;22.88;16.38;;;;;;;22.56;74.22;101751.47;4999861;28;20681;-52
2022/08/24 01:03:30;;;;;;;17.33;15.57;;;;;;;22.60;73.97;101747.97;5004061;28;20037;-53
2022/08/24 01:05:57;;;;;;;17.70;15.80;;;;;;;22.59;74.42;101752.34;5003970;28;20080;-53
2022/08/24 01:08:23;;;;;;;19.90;16.98;;;;;;;22.53;74.67;101751.53;5000970;28;20049;-54
2022/08/24 01:10:53;;;;;;;21.17;17.25;;;;;;;22.48;75.07;101744.56;5004542;28;20025;-51
2022/08/24 01:13:20;;;;;;;25.25;16.73;;;;;;;22.48;74.59;101744.56;5001409;28;20030;-52
2022/08/24 01:15:48;;;;;;;18.08;16.17;;;;;;;22.45;74.79;101738.47;4999839;28;20042;-53
2022/08/24 01:21:06;;;;;;;18.73;16.17;;;;;;;22.45;74.66;101741.09;5000814;28;20304;-52
2022/08/24 01:23:39;;;;;;;16.85;15.02;;;;;;;22.39;74.47;101739.41;5004037;28;20049;-52
2022/08/24 01:26:08;;;;;;;18.10;14.00;;;;;;;22.34;74.65;101742.91;4997943;28;20068;-53
2022/08/24 01:28:35;;;;;;;16.63;14.27;;;;;;;22.30;74.11;101747.28;5002821;28;20454;-53
2022/08/24 01:31:00;;;;;;;15.18;13.57;;;;;;;22.27;74.10;101742.09;5001366;28;20029;-54
2022/08/24 01:33:30;;;;;;;16.05;13.85;;;;;;;22.20;74.46;101742.97;5002180;28;20064;-53
2022/08/24 01:36:10;;;;;;;14.63;12.95;;;;;;;22.25;73.75;101738.59;4999758;28;20414;-53
2022/08/24 01:38:35;;;;;;;14.93;13.32;;;;;;;22.12;74.00;101736.94;4997239;28;20044;-53
2022/08/24 01:41:02;;;;;;;14.48;12.70;;;;;;;22.08;74.58;101733.41;5001119;28;20037;-53
2022/08/24 01:43:28;;;;;;;14.25;12.40;;;;;;;22.07;73.85;101725.56;5000520;28;20552;-54
2022/08/24 01:45:54;;;;;;;14.93;12.88;;;;;;;21.99;74.31;101725.63;5002492;28;20037;-54
2022/08/24 01:48:20;;;;;;;14.45;12.90;;;;;;;22.04;74.39;101728.22;5003729;28;20116;-54
2022/08/24 01:50:46;;;;;;;14.18;12.65;;;;;;;21.93;74.92;101734.38;5003821;28;20037;-53
2022/08/24 01:53:11;;;;;;;13.77;12.27;;;;;;;21.95;74.58;101732.63;5000403;28;20057;-54
2022/08/24 01:55:38;;;;;;;14.98;13.35;;;;;;;21.90;74.65;101725.66;5005646;28;20398;-53
2022/08/24 01:58:04;;;;;;;15.25;13.23;;;;;;;21.90;74.65;101725.66;5001163;28;20479;-54
2022/08/24 02:00:30;;;;;;;14.98;13.48;;;;;;;21.88;75.05;101730.03;5004294;28;20033;-54
2022/08/24 02:02:56;;;;;;;16.13;13.73;;;;;;;21.84;74.60;101730.91;4999593;28;20044;-52
2022/08/24 02:05:23;;;;;;;17.27;13.60;;;;;;;21.87;75.00;101737.03;4998757;28;20041;-53
2022/08/24 02:07:49;;;;;;;15.23;13.50;;;;;;;21.83;74.85;101737.91;4998932;28;20096;-53
2022/08/24 02:10:15;;;;;;;16.77;14.05;;;;;;;21.77;75.03;101732.69;5002157;28;20501;-53
2022/08/24 02:12:45;;;;;;;17.80;14.52;;;;;;;21.79;75.51;101720.50;5001124;28;20040;-53
2022/08/24 02:15:12;;;;;;;19.85;15.80;;;;;;;21.76;75.23;101725.72;4999282;28;20487;-53
2022/08/24 02:17:37;;;;;;;17.75;15.43;;;;;;;21.72;75.34;101729.25;4998210;28;20104;-54
2022/08/24 02:20:05;;;;;;;18.55;15.60;;;;;;;21.68;76.12;101730.13;5000681;28;20121;-53
2022/08/24 02:22:31;;;;;;;21.90;16.75;;;;;;;21.67;75.82;101733.63;5001016;28;20057;-54
2022/08/24 02:24:57;;;;;;;19.27;16.13;;;;;;;21.62;76.11;101738.03;4997410;28;20089;-53
2022/08/24 02:27:22;;;;;;;20.17;16.95;;;;;;;21.65;76.04;101746.72;4999136;28;20081;-52
2022/08/24 02:29:47;;;;;;;18.00;16.20;;;;;;;21.66;76.04;101743.25;4999976;28;20033;-53
2022/08/24 02:32:13;;;;;;;20.42;16.88;;;;;;;21.61;76.17;101758.09;4996696;28;20044;-53
2022/08/24 02:34:39;;;;;;;23.27;19.50;;;;;;;21.56;76.68;101757.22;5002126;28;20032;-53
2022/08/24 02:37:04;;;;;;;21.15;18.55;;;;;;;21.53;76.70;101753.72;5000874;28;20033;-52
2022/08/24 02:39:30;;;;;;;20.38;18.10;;;;;;;21.48;76.63;101755.50;5002161;28;20383;-52
2022/08/24 02:41:56;;;;;;;22.15;17.63;;;;;;;21.51;76.67;101758.97;5000549;28;20157;-53
2022/08/24 02:44:21;;;;;;;19.55;17.30;;;;;;;21.44;77.05;101756.41;4999734;28;20034;-52
2022/08/24 02:46:47;;;;;;;19.23;17.23;;;;;;;21.41;76.83;101754.63;5000913;28;20100;-53
2022/08/24 02:49:13;;;;;;;19.52;16.48;;;;;;;21.42;76.25;101761.63;4999817;28;20121;-53
2022/08/24 02:51:40;;;;;;;19.52;15.80;;;;;;;21.34;76.28;101756.41;5000646;28;20371;-54
2022/08/24 02:54:06;;;;;;;17.52;15.48;;;;;;;21.40;76.07;101755.50;5002047;28;20136;-54
2022/08/24 02:56:32;;;;;;;18.58;16.40;;;;;;;21.34;76.52;101745.06;5002531;28;20485;-54
2022/08/24 02:58:58;;;;;;;17.10;15.15;;;;;;;21.30;76.40;101757.31;5000665;28;20037;-53
2022/08/24 03:01:25;;;;;;;17.98;15.68;;;;;;;21.30;76.43;101746.84;4998551;28;20125;-53
2022/08/24 03:03:50;;;;;;;17.20;15.35;;;;;;;21.29;76.52;101752.91;5002571;28;20033;-53
2022/08/24 03:06:16;;;;;;;17.65;15.43;;;;;;;21.23;76.50;101750.28;4998940;28;20034;-54
2022/08/24 03:08:42;;;;;;;18.15;16.15;;;;;;;21.27;76.65;101746.78;4999932;28;20501;-53
2022/08/24 03:11:07;;;;;;;19.48;16.73;;;;;;;21.23;77.03;101752.91;4999427;28;20038;-54
2022/08/24 03:13:34;;;;;;;20.63;18.48;;;;;;;21.22;77.25;101747.69;4996788;28;20033;-53
2022/08/24 03:16:00;;;;;;;21.27;18.95;;;;;;;21.21;77.69;101741.56;5001498;28;20044;-54
2022/08/24 03:18:26;;;;;;;20.45;17.90;;;;;;;21.16;78.14;101752.03;5000326;28;20025;-52
2022/08/24 03:20:57;;;;;;;19.77;17.52;;;;;;;21.19;78.18;101751.19;4999857;28;20076;-53
2022/08/24 03:23:23;;;;;;;19.08;17.10;;;;;;;21.13;78.45;101752.06;4998308;28;20403;-54
2022/08/24 03:25:50;;;;;;;20.17;18.17;;;;;;;21.08;78.18;101745.09;5001621;28;20041;-53
2022/08/24 03:28:17;;;;;;;20.95;18.65;;;;;;;21.10;78.68;101738.97;5002814;28;20049;-52
2022/08/24 03:30:42;;;;;;;19.88;17.73;;;;;;;21.05;78.86;101745.97;5004077;28;20022;-53
2022/08/24 03:33:08;;;;;;;19.48;17.40;;;;;;;21.03;78.42;101737.25;5003391;28;20537;-53
2022/08/24 03:35:34;;;;;;;19.85;16.83;;;;;;;20.96;78.28;101734.66;5002370;28;20613;-53
2022/08/24 03:38:00;;;;;;;18.25;16.33;;;;;;;21.01;78.31;101738.13;5015832;28;20034;-52
2022/08/24 03:40:26;;;;;;;19.48;17.38;;;;;;;20.96;77.99;101739.88;5001311;28;20042;-53
2022/08/24 03:42:52;;;;;;;19.77;17.70;;;;;;;20.96;77.66;101738.13;5003764;28;20538;-53
2022/08/24 03:45:17;;;;;;;20.10;17.90;;;;;;;20.98;77.03;101738.13;5004502;28;20041;-53
2022/08/24 03:47:44;;;;;;;21.27;18.67;;;;;;;20.92;77.69;101739.00;5001462;28;20029;-52
2022/08/24 03:50:09;;;;;;;22.15;19.83;;;;;;;20.97;78.46;101744.22;5003157;28;20798;-53
2022/08/24 03:52:35;;;;;;;21.77;19.48;;;;;;;20.97;78.31;101750.31;5004488;28;20048;-54
2022/08/24 03:55:05;;;;;;;23.20;20.80;;;;;;;20.98;78.80;101751.19;5006351;28;20481;-53
2022/08/24 03:57:31;;;;;;;21.83;19.52;;;;;;;20.96;78.87;101748.59;5001129;28;20095;-52
2022/08/24 03:59:57;;;;;;;22.27;20.00;;;;;;;20.96;79.41;101750.34;5003262;28;20121;-53
2022/08/24 04:02:23;;;;;;;23.58;21.13;;;;;;;20.94;79.55;101739.03;5000049;28;20034;-53
2022/08/24 04:04:48;;;;;;;24.58;21.20;;;;;;;20.95;79.86;101743.38;5004045;28;20490;-53
2022/08/24 04:07:14;;;;;;;23.05;20.65;;;;;;;20.88;79.56;101745.13;5001837;28;20049;-52
2022/08/24 04:09:39;;;;;;;23.48;20.17;;;;;;;20.90;79.66;101756.44;5000047;28;20041;-53
2022/08/24 04:12:05;;;;;;;22.05;19.65;;;;;;;20.88;78.77;101747.72;5003259;28;20041;-54
2022/08/24 04:14:30;;;;;;;22.67;20.27;;;;;;;20.79;78.93;101751.19;5002301;28;20057;-52
2022/08/24 04:16:55;;;;;;;20.67;18.63;;;;;;;20.74;79.04;101752.94;5002544;28;20045;-52
2022/08/24 04:19:21;;;;;;;20.30;18.20;;;;;;;20.72;78.70;101754.69;5004813;28;20033;-53
2022/08/24 04:21:46;;;;;;;19.98;17.48;;;;;;;20.69;78.52;101765.16;5002144;28;20037;-53
2022/08/24 04:24:11;;;;;;;20.27;17.60;;;;;;;20.69;78.67;101754.69;5003403;28;20062;-52
2022/08/24 04:26:39;;;;;;;19.20;17.20;;;;;;;20.69;78.49;101757.31;5001715;28;20465;-53
2022/08/24 04:29:08;;;;;;;22.20;18.27;;;;;;;20.67;78.90;101760.78;4999419;28;20065;-53
2022/08/24 04:31:34;;;;;;;;;;;;;;;20.93;76.72;101760.78;5002572;28;20109;-53
2022/08/24 04:33:59;;;;;;;19.75;17.38;;;;;;;20.69;78.10;101762.53;4999666;28;20015;-53
2022/08/24 04:36:24;;;;;;;19.05;17.05;;;;;;;20.67;77.91;101759.03;4999435;28;20054;-53
2022/08/24 04:38:50;;;;;;;19.17;17.08;;;;;;;20.66;78.18;101757.31;5000852;28;20042;-53
2022/08/24 04:41:19;;;;;;;19.63;17.58;;;;;;;20.62;78.42;101750.31;5003095;28;21765;-53
2022/08/24 04:43:45;;;;;;;19.52;17.42;;;;;;;20.61;78.13;101759.91;5001198;28;20112;-54
2022/08/24 04:46:15;;;;;;;22.20;18.35;;;;;;;20.59;78.14;101768.63;5003555;28;20022;-53
2022/08/24 04:48:43;;;;;;;19.63;17.52;;;;;;;20.52;78.78;101759.03;4999235;28;20053;-53
2022/08/24 04:51:10;;;;;;;18.95;16.73;;;;;;;20.52;78.47;101767.75;5002800;28;20037;-53
2022/08/24 04:53:37;;;;;;;20.05;16.52;;;;;;;20.51;77.89;101763.41;5000373;28;20438;-53
2022/08/24 04:56:07;;;;;;;19.00;16.52;;;;;;;20.48;78.34;101760.75;5001489;28;20475;-53
2022/08/24 04:58:33;;;;;;;18.13;16.00;;;;;;;20.48;78.15;101766.00;5004121;28;20029;-53
2022/08/24 05:00:59;;;;;;;18.83;16.90;;;;;;;20.47;78.11;101772.09;5001166;28;20034;-52
2022/08/24 05:03:24;;;;;;;18.17;16.00;;;;;;;20.49;78.44;101774.69;5003975;28;20104;-53
2022/08/24 05:05:50;;;;;;;17.80;16.02;;;;;;;20.51;78.39;101771.22;5000656;28;20033;-53
2022/08/24 05:08:19;;;;;;;18.05;16.15;;;;;;;20.52;78.60;101774.72;5001784;28;20026;-53
2022/08/24 05:10:46;;;;;;;;;;;;;;;20.72;76.86;101772.97;5001800;28;20042;-52
2022/08/24 05:13:12;;;;;;;18.92;16.05;;;;;;;20.48;78.74;101772.97;4997766;28;19969;-53
2022/08/24 05:15:46;;;;;;;19.58;17.48;;;;;;;20.51;78.88;101775.59;4999825;28;20777;-53
2022/08/24 05:18:13;;;;;;;19.38;16.70;;;;;;;20.46;78.99;101778.19;5000320;28;20034;-53
2022/08/24 05:20:41;;;;;;;21.08;17.45;;;;;;;20.48;79.25;101779.06;5003575;28;20037;-53
2022/08/24 05:23:07;;;;;;;19.02;17.08;;;;;;;20.47;79.09;101776.44;5003487;28;20038;-54
2022/08/24 05:25:32;;;;;;;19.65;17.52;;;;;;;20.44;79.75;101776.38;5005983;28;20112;-53
2022/08/24 05:27:58;;;;;;;19.67;17.67;;;;;;;20.48;79.63;101780.78;4997884;28;20478;-53
2022/08/24 05:30:23;;;;;;;20.92;17.58;;;;;;;20.54;79.86;101779.06;5000228;28;20032;-53
2022/08/24 05:32:48;;;;;;;19.77;17.70;;;;;;;20.56;79.63;101792.13;4992480;28;20049;-53
2022/08/24 05:35:14;;;;;;;19.70;17.65;;;;;;;20.58;79.90;101787.78;5000680;28;20506;-50
2022/08/24 05:37:39;;;;;;;19.38;17.38;;;;;;;20.55;79.93;101780.81;5001353;28;20045;-53
2022/08/24 05:40:08;;;;;;;18.83;16.90;;;;;;;20.57;79.70;101791.28;5001286;28;20041;-54
2022/08/24 05:42:34;;;;;;;19.48;17.30;;;;;;;20.56;79.69;101784.28;5001421;28;20034;-53
2022/08/24 05:44:59;;;;;;;19.45;17.17;;;;;;;20.58;79.54;101788.66;5000142;28;21549;-53
2022/08/24 05:47:24;;;;;;;19.20;16.92;;;;;;;20.58;80.14;101788.66;5001209;28;20030;-54
2022/08/24 05:49:53;;;;;;;18.52;16.52;;;;;;;20.59;79.57;101785.16;5000811;28;20632;-53
2022/08/24 05:52:21;;;;;;;19.75;17.42;;;;;;;20.62;80.38;101790.38;4998254;28;20113;-53
2022/08/24 05:54:51;;;;;;;20.23;18.13;;;;;;;20.62;80.93;101786.91;5003118;28;20057;-53
2022/08/24 05:57:17;;;;;;;19.77;17.77;;;;;;;20.58;81.26;101788.66;4995730;28;20041;-53
2022/08/24 05:59:44;;;;;;;19.20;17.30;;;;;;;20.63;81.10;101783.44;4999904;28;20875;-54
2022/08/24 06:02:10;;;;;;;19.58;17.58;;;;;;;20.61;82.61;101786.03;4998562;28;20041;-51
2022/08/24 06:04:37;;;;;;;19.70;17.58;;;;;;;20.69;82.15;101793.00;4999254;28;21055;-53
2022/08/24 06:07:03;;;;;;;19.67;17.60;;;;;;;20.73;82.20;101797.38;4995031;28;20033;-53
2022/08/24 06:09:28;;;;;;;20.58;18.33;;;;;;;20.76;82.14;101794.78;4993433;28;20036;-52
2022/08/24 06:11:54;;;;;;;21.23;18.38;;;;;;;20.83;82.38;101801.75;4997894;28;20494;-52
2022/08/24 06:14:19;;;;;;;21.58;19.27;;;;;;;20.92;81.84;101796.50;4996342;28;20056;-53
2022/08/24 06:16:45;;;;;;;21.45;19.42;;;;;;;21.03;81.92;101806.97;4997269;28;20049;-51
2022/08/24 06:19:14;;;;;;;22.15;19.85;;;;;;;21.11;81.78;101810.44;4995205;28;20029;-53
2022/08/24 06:21:40;;;;;;;21.00;18.80;;;;;;;21.15;82.02;101801.75;5001208;28;20520;-52
2022/08/24 06:24:06;;;;;;;21.45;19.02;;;;;;;21.26;81.34;101807.84;4996672;28;20030;-52
2022/08/24 06:29:18;;;;;;;21.23;19.02;;;;;;;21.39;82.07;101806.97;4996136;28;20127;-54
2022/08/24 06:31:45;;;;;;;26.55;20.67;;;;;;;21.50;81.65;101822.66;4991618;28;20041;-53
2022/08/24 06:34:13;;;;;;;24.10;21.40;;;;;;;21.61;81.21;101822.66;4997752;28;20029;-53
2022/08/24 06:36:39;;;;;;;27.15;22.17;;;;;;;21.67;81.79;101817.41;4998342;28;20552;-52
2022/08/24 06:39:05;;;;;;;27.77;22.60;;;;;;;21.76;81.32;101819.97;4994859;28;20029;-53
2022/08/24 06:41:30;;;;;;;27.35;21.70;;;;;;;21.86;81.08;101821.69;4997768;28;20038;-52
2022/08/24 06:43:55;;;;;;;34.00;24.80;;;;;;;21.93;81.51;101823.41;4997834;28;20123;-53
2022/08/24 06:46:21;;;;;;;31.23;24.02;;;;;;;22.08;80.65;101824.22;4998280;28;20134;-54
2022/08/24 06:48:47;;;;;;;31.90;24.45;;;;;;;22.16;79.66;101825.09;4995393;28;20119;-53
2022/08/24 06:51:15;;;;;;;28.75;23.88;;;;;;;22.28;79.56;101825.06;4998766;28;20026;-54
2022/08/24 06:53:42;;;;;;;28.02;24.60;;;;;;;22.36;79.39;101823.25;4997226;28;20046;-51
2022/08/24 06:56:09;;;;;;;28.58;23.92;;;;;;;22.45;79.18;101823.22;4998095;28;20491;-57
2022/08/24 06:58:35;;;;;;;32.00;24.60;;;;;;;22.61;79.23;101818.72;4999183;28;20032;-53
2022/08/24 07:01:16;;;;;;;30.10;23.65;;;;;;;22.77;79.15;101827.38;4996824;28;20033;-53
2022/08/24 07:03:43;;;;;;;29.92;23.35;;;;;;;22.86;78.40;101834.28;5001981;28;20056;-54
2022/08/24 07:06:08;;;;;;;32.45;23.70;;;;;;;22.95;78.83;101834.25;4991312;28;20116;-52
2022/08/24 07:08:35;;;;;;;30.30;22.08;;;;;;;23.05;77.09;101838.53;4997646;28;20044;-53
2022/08/24 07:11:01;;;;;;;27.48;23.50;;;;;;;23.09;77.41;101840.25;4998341;28;20030;-53
2022/08/24 07:13:28;;;;;;;29.75;23.27;;;;;;;23.17;76.81;101834.94;4998173;28;20034;-54
2022/08/24 07:15:53;;;;;;;27.80;22.42;;;;;;;23.29;76.01;101837.44;4997114;28;20478;-53
2022/08/24 07:18:19;;;;;;;27.55;22.67;;;;;;;23.40;74.91;101838.22;4997984;28;20072;-54
2022/08/24 07:20:46;;;;;;;26.85;20.02;;;;;;;23.45;73.71;101839.06;4996208;28;20064;-54
2022/08/24 07:23:13;;;;;;;25.85;21.05;;;;;;;23.55;73.67;101840.72;4993765;28;20106;-52
2022/08/24 07:25:40;;;;;;;27.65;21.20;;;;;;;23.64;73.69;101842.41;4995724;28;20478;-53
2022/08/24 07:28:07;;;;;;;22.92;19.48;;;;;;;23.73;72.95;101841.44;4991893;28;20185;-57
2022/08/24 07:30:33;;;;;;;26.73;20.30;;;;;;;23.81;72.68;101839.59;4992470;28;20032;-53
2022/08/24 07:32:58;;;;;;;24.13;20.15;;;;;;;23.96;72.43;101844.66;4993087;28;20030;-51
2022/08/24 07:35:28;;;;;;;28.90;19.67;;;;;;;24.02;72.46;101843.72;4992102;28;20041;-53
2022/08/24 07:37:55;;;;;;;24.17;18.75;;;;;;;24.06;71.35;101841.03;4991918;28;20084;-53
2022/08/24 07:40:22;;;;;;;24.50;16.85;;;;;;;24.19;70.47;101840.88;4989232;28;20028;-55
2022/08/24 07:42:49;;;;;;;21.17;15.60;;;;;;;24.23;69.91;101840.81;4991053;28;20652;-55
2022/08/24 07:45:15;;;;;;;18.38;13.63;;;;;;;24.34;68.83;101836.34;4989228;28;20026;-55
2022/08/24 07:47:41;;;;;;;20.20;14.63;;;;;;;24.49;67.07;101831.75;4991396;28;20699;-52
2022/08/24 07:50:07;;;;;;;21.38;13.70;;;;;;;24.49;68.17;101835.25;4989613;28;20065;-55
2022/08/24 07:52:32;;;;;;;20.58;14.48;;;;;;;24.57;66.64;101833.38;4997858;28;20116;-53
2022/08/24 07:54:58;;;;;;;24.38;14.25;;;;;;;24.69;66.39;101839.31;4993303;28;20470;-54
2022/08/24 07:57:23;;;;;;;24.73;14.88;;;;;;;24.75;66.47;101832.22;4994917;28;20061;-55
2022/08/24 07:59:49;;;;;;;27.67;15.48;;;;;;;24.83;66.66;101837.38;4997230;28;20072;-55
2022/08/24 08:02:15;;;;;;;21.38;14.95;;;;;;;24.85;67.14;101832.94;4999826;28;20022;-54
2022/08/24 08:04:41;;;;;;;17.40;13.90;;;;;;;25.01;66.61;101838.84;4992212;28;20061;-56
2022/08/24 08:07:06;;;;;;;19.98;12.95;;;;;;;25.01;67.73;101844.09;4995049;28;20127;-54
2022/08/24 08:09:35;;;;;;;17.02;12.60;;;;;;;25.01;67.19;101846.75;4997452;28;20042;-55
2022/08/24 08:12:00;;;;;;;20.52;12.00;;;;;;;25.20;65.12;101842.06;4997421;28;20931;-54
2022/08/24 08:14:26;;;;;;;19.05;11.85;;;;;;;25.14;64.95;101848.31;4998793;28;20045;-54
2022/08/24 08:16:52;;;;;;;18.65;10.05;;;;;;;25.25;65.50;101849.00;4991926;28;20049;-55
2022/08/24 08:19:17;;;;;;;14.85;9.70;;;;;;;25.36;63.72;101854.03;4998576;28;20026;-55
2022/08/24 08:24:29;;;;;;;15.90;9.85;;;;;;;25.39;64.72;101848.75;4996279;28;20064;-55
2022/08/24 08:26:56;;;;;;;18.45;9.43;;;;;;;25.43;65.15;101855.69;5003864;28;20025;-53
2022/08/24 08:29:23;;;;;;;15.85;10.55;;;;;;;25.46;63.13;101857.41;4997836;28;20034;-54
2022/08/24 08:31:50;;;;;;;14.68;9.23;;;;;;;25.51;63.50;101855.56;5001668;28;20030;-54
2022/08/24 08:34:16;;;;;;;13.57;9.48;;;;;;;25.56;62.83;101853.72;4998375;28;20061;-57
2022/08/24 08:36:42;;;;;;;14.93;9.60;;;;;;;25.64;61.67;101852.66;5001105;28;20029;-53
2022/08/24 08:39:09;;;;;;;17.00;10.75;;;;;;;25.62;61.24;101851.81;5004054;28;20446;-53
2022/08/24 08:41:50;;;;;;;14.98;9.00;;;;;;;25.71;62.64;101856.03;4996403;28;20040;-56
2022/08/24 08:44:27;;;;;;;12.77;7.78;;;;;;;25.79;62.62;101854.19;5004040;28;20038;-55
2022/08/24 08:47:07;;;;;;;11.52;7.30;;;;;;;25.88;63.15;101850.47;5000973;28;20030;-55
2022/08/24 08:49:54;;;;;;;16.27;7.97;;;;;;;25.95;62.24;101857.34;5004661;28;20030;-53
2022/08/24 08:52:57;;;;;;;12.40;7.07;;;;;;;26.03;62.59;101855.47;5000495;28;20494;-55
2022/08/24 08:55:39;;;;;;;12.95;6.50;;;;;;;26.16;61.86;101856.94;5001351;28;20495;-54
2022/08/24 08:58:42;;;;;;;13.25;8.30;;;;;;;26.19;61.04;101862.13;5002385;28;20041;-55
2022/08/24 09:01:30;;;;;;;11.93;6.50;;;;;;;26.26;61.00;101854.09;4999218;28;20160;-55
2022/08/24 09:04:16;;;;;;;13.05;5.78;;;;;;;26.31;61.79;101854.84;5001644;28;20498;-53
2022/08/24 09:07:20;;;;;;;9.15;5.80;;;;;;;26.39;61.70;101853.81;5005346;28;20018;-53
2022/08/24 09:09:55;;;;;;;17.42;5.68;;;;;;;26.50;61.60;101865.91;5003305;28;20474;-55
2022/08/24 09:12:27;;;;;;;10.15;5.10;;;;;;;26.56;58.99;101860.50;5001375;28;20030;-52
2022/08/24 09:15:08;;;;;;;8.98;5.40;;;;;;;26.55;57.88;101850.84;5002615;28;20029;-52
2022/08/24 09:18:24;;;;;;;9.32;5.57;;;;;;;26.57;59.34;101852.53;5003794;28;20487;-54
2022/08/24 09:21:02;;;;;;;11.75;5.05;;;;;;;26.56;57.92;101850.81;4991089;28;20120;-55
2022/08/24 09:23:47;;;;;;;8.80;4.50;;;;;;;26.63;58.83;101849.75;5005260;28;20033;-53
2022/08/24 09:26:25;;;;;;;12.68;4.93;;;;;;;26.76;57.50;101849.50;5002765;28;20022;-53
2022/08/24 09:28:56;;;;;;;6.80;4.05;;;;;;;26.70;58.71;101853.16;5004562;28;20083;-54
2022/08/24 09:31:49;;;;;;;9.10;4.13;;;;;;;26.79;57.14;101859.97;5002974;28;20029;-55
2022/08/24 09:34:25;;;;;;;7.63;4.22;;;;;;;26.84;56.76;101858.09;5002562;28;20537;-54
2022/08/24 09:37:03;;;;;;;8.52;4.78;;;;;;;26.88;55.41;101852.72;5000938;28;20026;-53
2022/08/24 09:39:31;;;;;;;9.93;4.35;;;;;;;26.94;55.03;101856.97;5000015;28;20108;-55
2022/08/24 09:42:12;;;;;;;8.60;3.92;;;;;;;26.99;56.87;101857.69;4997750;28;20033;-54
2022/08/24 09:44:54;;;;;;;9.73;3.92;;;;;;;26.94;57.24;101852.56;4999350;28;20064;-53
2022/08/24 09:47:43;;;;;;;7.45;3.50;;;;;;;26.96;56.34;101852.50;5000034;28;20045;-54
2022/08/24 09:50:30;;;;;;;6.90;4.32;;;;;;;26.94;53.76;101862.25;5004807;28;20963;-54
2022/08/24 09:53:33;;;;;;;8.55;4.07;;;;;;;26.92;55.59;101858.75;4999933;28;20040;-55
2022/08/24 09:56:48;;;;;;;5.90;3.30;;;;;;;26.95;56.03;101856.94;4987182;28;20076;-54
2022/08/24 09:59:44;;;;;;;9.93;3.80;;;;;;;27.04;56.22;101860.22;4997370;28;20453;-55
2022/08/24 10:02:24;;;;;;;7.50;3.13;;;;;;;27.13;56.89;101857.41;5002764;28;20433;-54
2022/08/24 10:04:57;;;;;;;8.07;4.68;;;;;;;27.15;56.03;101861.75;5000675;28;20470;-55
2022/08/24 10:07:49;;;;;;;6.38;3.50;;;;;;;27.23;55.56;101850.97;5000717;28;20021;-55
2022/08/24 10:10:31;;;;;;;4.80;3.20;;;;;;;27.31;55.45;101854.31;5003642;28;20037;-54
2022/08/24 10:13:27;;;;;;;4.85;3.05;;;;;;;27.38;56.92;101852.38;5000729;28;20168;-53
2022/08/24 10:16:22;;;;;;;6.15;3.13;;;;;;;27.35;56.10;101850.66;5003152;28;20113;-55
2022/08/24 10:19:07;;;;;;;5.32;2.63;;;;;;;27.37;54.66;101845.34;5001696;28;20478;-55
2022/08/24 10:22:09;;;;;;;6.18;2.75;;;;;;;27.54;54.30;101848.38;4997510;28;20383;-53
2022/08/24 10:24:52;;;;;;;3.92;2.20;;;;;;;27.59;53.63;101845.63;4994419;28;20414;-52
2022/08/24 10:27:38;;;;;;;3.10;1.70;;;;;;;27.65;51.88;101840.19;4995891;28;20038;-52
2022/08/24 10:30:28;;;;;;;4.55;2.00;;;;;;;27.63;50.32;101839.38;4994859;28;20053;-58
2022/08/24 10:33:18;;;;;;;5.72;1.90;;;;;;;27.66;51.65;101841.91;4990651;28;20045;-53
2022/08/24 10:35:56;;;;;;;1.65;1.38;;;;;;;27.70;51.14;101838.31;5000094;28;20018;-51
2022/08/24 10:41:51;;;;;;;1.85;1.20;;;;;;;27.79;52.48;101832.78;4993886;28;20079;-52
2022/08/24 10:44:45;;;;;;;2.45;1.10;;;;;;;27.78;50.39;101841.59;4999456;28;20026;-51
2022/08/24 10:47:29;;;;;;;3.00;1.42;;;;;;;27.76;50.34;101832.84;4994744;28;20438;-51
2022/08/24 10:50:16;;;;;;;4.13;1.15;;;;;;;27.74;50.92;101832.91;4999735;28;20025;-53
2022/08/24 10:53:03;;;;;;;4.40;1.27;;;;;;;27.70;51.07;101833.88;5000808;28;20376;-52
2022/08/24 10:55:32;;;;;;;4.90;1.10;;;;;;;27.62;50.11;101835.84;5000164;28;20633;-52
2022/08/24 10:58:22;;;;;;;2.13;1.13;;;;;;;27.63;51.49;101839.38;5000870;28;20038;-52
2022/08/24 11:00:48;;;;;;;2.70;1.17;;;;;;;27.55;50.97;101839.56;5000980;28;20029;-52
2022/08/24 11:03:20;;;;;;;1.75;1.15;;;;;;;27.55;52.33;101833.44;5001920;28;20580;-52
2022/08/24 11:05:52;;;;;;;2.72;1.20;;;;;;;27.53;52.38;101831.66;5002806;28;20061;-53
2022/08/24 11:08:32;;;;;;;3.55;1.30;;;;;;;27.53;52.81;101829.03;4998923;28;20026;-54
2022/08/24 11:11:12;;;;;;;3.15;1.60;;;;;;;27.53;53.48;101821.09;5002468;28;20038;-53
2022/08/24 11:13:51;;;;;;;4.28;1.48;;;;;;;27.60;53.77;101823.56;4999225;28;20036;-53
2022/08/24 11:16:37;;;;;;;3.58;1.50;;;;;;;27.72;52.83;101821.50;5001685;28;20026;-53
2022/08/24 11:19:08;;;;;;;3.38;1.55;;;;;;;27.86;51.13;101821.13;5002613;28;20509;-53
2022/08/24 11:21:39;;;;;;;2.78;1.73;;;;;;;27.84;50.86;101817.63;5002169;28;20495;-53
2022/08/24 11:24:10;;;;;;;2.95;1.60;;;;;;;27.93;50.92;101822.66;5000287;28;20044;-52
2022/08/24 11:27:14;;;;;;;3.90;1.70;;;;;;;27.97;49.54;101811.09;5000180;28;20061;-53
2022/08/24 11:29:48;;;;;;;4.55;1.40;;;;;;;28.00;49.04;101815.41;5002785;28;20984;-53
2022/08/24 11:32:38;;;;;;;2.42;1.50;;;;;;;28.10;50.00;101816.88;5004165;28;20444;-52
2022/08/24 11:35:06;;;;;;;2.03;1.40;;;;;;;28.00;50.25;101816.28;4999015;28;20441;-51
2022/08/24 11:37:36;;;;;;;;;;;;;;;28.13;50.62;101807.97;5005378;28;20022;-50
2022/08/24 11:40:04;;;;;;;2.13;1.25;;;;;;;28.07;50.12;101814.31;4999430;28;20000;-52
2022/08/24 11:42:38;;;;;;;2.70;1.60;;;;;;;28.12;50.20;101811.53;5003954;28;20029;-50